Time;durP1;ratioP1;P1;durP2;ratioP2;P2;SDS_P1;SDS_P2;PMS_P1;PMS_P2;Temp;Humidity;BMP_temperature;BMP_pressure;BME280_temperature;BME280_humidity;BME280_pressure;Samples;Min_cycle;Max_cycle;Signal;HPM_P1;HPM_P2
2023/07/29 00:01:11;;;;;;;7.80;7.00;;;19.30;99.90;;;;;;5040581;28;20636;-75
2023/07/29 00:03:37;;;;;;;8.02;6.60;;;19.30;99.90;;;;;;5037841;28;20208;-74
2023/07/29 00:06:03;;;;;;;8.93;6.53;;;19.30;99.90;;;;;;5042991;28;20575;-75
2023/07/29 00:08:28;;;;;;;7.80;7.00;;;19.30;99.90;;;;;;5046633;28;20208;-74
2023/07/29 00:10:54;;;;;;;7.45;6.75;;;19.20;99.90;;;;;;5044687;28;20204;-74
2023/07/29 00:13:20;;;;;;;8.18;7.30;;;19.10;99.90;;;;;;5045804;28;20198;-74
2023/07/29 00:15:45;;;;;;;7.72;6.93;;;19.10;99.90;;;;;;5045593;28;20300;-74
2023/07/29 00:18:11;;;;;;;8.52;7.72;;;19.10;99.90;;;;;;5045541;28;20569;-75
2023/07/29 00:20:37;;;;;;;10.43;7.25;;;19.10;99.90;;;;;;5042940;28;20547;-74
2023/07/29 00:23:02;;;;;;;9.07;7.93;;;19.10;99.90;;;;;;5042209;28;20513;-74
2023/07/29 00:25:28;;;;;;;8.52;7.72;;;19.00;99.90;;;;;;5044598;28;20547;-74
2023/07/29 00:27:56;;;;;;;9.02;7.53;;;19.00;99.90;;;;;;5045066;28;20211;-74
2023/07/29 00:30:22;;;;;;;9.38;7.60;;;18.90;99.90;;;;;;5046198;28;20226;-74
2023/07/29 00:32:47;;;;;;;8.20;7.32;;;19.00;99.90;;;;;;5048434;28;20199;-74
2023/07/29 00:35:13;;;;;;;8.25;7.00;;;18.90;99.90;;;;;;5043147;28;20820;-75
2023/07/29 00:37:39;;;;;;;9.13;8.02;;;18.90;99.90;;;;;;5042676;28;20182;-74
2023/07/29 00:40:15;;;;;;;11.50;8.77;;;18.90;99.90;;;;;;5043564;28;20231;-72
2023/07/29 00:42:42;;;;;;;18.02;12.48;;;18.90;99.90;;;;;;5047802;28;20215;-74
2023/07/29 00:45:09;;;;;;;9.05;7.70;;;19.00;99.90;;;;;;5043693;28;20224;-74
2023/07/29 00:47:34;;;;;;;11.48;8.40;;;19.00;99.90;;;;;;5044845;28;20207;-74
2023/07/29 00:50:00;;;;;;;8.55;7.45;;;18.90;99.90;;;;;;5044155;28;20182;-76
2023/07/29 00:52:26;;;;;;;9.98;7.80;;;18.90;99.90;;;;;;5047818;28;20314;-74
2023/07/29 00:54:51;;;;;;;8.05;7.25;;;18.80;99.90;;;;;;5054265;28;20204;-74
2023/07/29 00:57:20;;;;;;;8.10;6.78;;;18.80;99.90;;;;;;5049476;28;20298;-74
2023/07/29 00:59:46;;;;;;;7.63;6.82;;;18.90;99.90;;;;;;5049106;28;20211;-74
2023/07/29 01:02:12;;;;;;;8.05;7.05;;;18.80;99.90;;;;;;5047165;28;20200;-74
2023/07/29 01:04:38;;;;;;;8.65;6.68;;;18.80;99.90;;;;;;5059631;28;20202;-74
2023/07/29 01:07:19;;;;;;;9.30;6.93;;;18.70;99.90;;;;;;5050027;28;20235;-73
2023/07/29 01:09:55;;;;;;;8.00;7.20;;;18.70;99.90;;;;;;5060305;28;20257;-74
2023/07/29 01:12:28;;;;;;;9.10;6.88;;;18.70;99.90;;;;;;5048755;28;20230;-74
2023/07/29 01:15:15;;;;;;;7.93;7.15;;;18.70;99.90;;;;;;5038833;28;20257;-76
2023/07/29 01:18:01;;;;;;;9.02;6.88;;;18.60;99.90;;;;;;5040583;28;20298;-75
2023/07/29 01:20:27;;;;;;;10.40;7.28;;;18.70;99.90;;;;;;5046641;28;20607;-74
2023/07/29 01:22:53;;;;;;;10.50;8.32;;;18.70;99.90;;;;;;5044515;28;20405;-74
2023/07/29 01:25:19;;;;;;;8.27;7.22;;;18.70;99.90;;;;;;5049363;28;20267;-75
2023/07/29 01:27:46;;;;;;;7.97;6.85;;;18.70;99.90;;;;;;5043899;28;20215;-74
2023/07/29 01:30:13;;;;;;;8.63;7.47;;;18.70;99.90;;;;;;5045630;28;20203;-74
2023/07/29 01:33:10;;;;;;;7.38;6.75;;;18.70;99.90;;;;;;5047517;28;20219;-74
2023/07/29 01:35:55;;;;;;;9.10;6.97;;;18.70;99.90;;;;;;5022153;28;20207;-75
2023/07/29 01:38:31;;;;;;;7.22;6.53;;;18.70;99.90;;;;;;5042136;28;20310;-74
2023/07/29 01:40:59;;;;;;;7.95;7.20;;;18.70;99.90;;;;;;5048754;28;20207;-72
2023/07/29 01:43:25;;;;;;;8.23;7.28;;;18.70;99.90;;;;;;5049351;28;20230;-75
2023/07/29 01:45:51;;;;;;;8.32;7.00;;;18.70;99.90;;;;;;5047771;28;20226;-74
2023/07/29 01:48:17;;;;;;;7.18;6.47;;;18.70;99.90;;;;;;5049945;28;20216;-75
2023/07/29 01:50:43;;;;;;;7.70;6.85;;;18.60;99.90;;;;;;5048395;28;20225;-74
2023/07/29 01:53:08;;;;;;;8.68;7.50;;;18.60;99.90;;;;;;5043402;28;20200;-74
2023/07/29 01:55:34;;;;;;;8.63;7.15;;;18.60;99.90;;;;;;5039285;28;20238;-74
2023/07/29 01:57:59;;;;;;;7.75;6.95;;;18.60;99.90;;;;;;5045141;28;20207;-74
2023/07/29 02:00:25;;;;;;;8.50;7.70;;;18.60;99.90;;;;;;5043866;28;20220;-75
2023/07/29 02:02:51;;;;;;;8.88;7.43;;;18.60;99.90;;;;;;5042524;28;20226;-74
2023/07/29 02:05:16;;;;;;;8.63;7.80;;;18.50;99.90;;;;;;5042626;28;20221;-74
2023/07/29 02:07:42;;;;;;;8.40;7.43;;;18.50;99.90;;;;;;5044845;28;20191;-74
2023/07/29 02:10:08;;;;;;;10.52;7.35;;;18.50;99.90;;;;;;5045106;28;20569;-74
2023/07/29 02:12:34;;;;;;;10.35;8.05;;;18.50;99.90;;;;;;5046451;28;20215;-74
2023/07/29 02:14:59;;;;;;;13.50;7.95;;;18.40;99.90;;;;;;5055173;28;20207;-75
2023/07/29 02:17:26;;;;;;;9.15;7.47;;;18.50;99.90;;;;;;5048467;28;20288;-74
2023/07/29 02:19:52;;;;;;;8.38;7.57;;;18.50;99.90;;;;;;5042616;28;20175;-74
2023/07/29 02:22:18;;;;;;;9.75;7.47;;;18.40;99.90;;;;;;5048737;28;20237;-74
2023/07/29 02:24:44;;;;;;;9.82;8.02;;;18.40;99.90;;;;;;5033715;28;20208;-74
2023/07/29 02:27:10;;;;;;;8.27;7.13;;;18.40;99.90;;;;;;5048950;28;20231;-73
2023/07/29 02:29:36;;;;;;;7.03;6.22;;;18.40;99.90;;;;;;5041079;28;20231;-75
2023/07/29 02:32:03;;;;;;;8.20;7.40;;;18.40;99.90;;;;;;5043656;28;21012;-74
2023/07/29 02:34:29;;;;;;;8.85;7.97;;;18.40;99.90;;;;;;5049415;28;20175;-74
2023/07/29 02:36:54;;;;;;;8.80;7.80;;;18.30;99.90;;;;;;5047189;28;20213;-74
2023/07/29 02:39:20;;;;;;;11.88;7.47;;;18.40;99.90;;;;;;5048524;28;20207;-75
2023/07/29 02:41:46;;;;;;;10.10;8.07;;;18.40;99.90;;;;;;5047669;28;20214;-75
2023/07/29 02:44:11;;;;;;;10.43;7.65;;;18.30;99.90;;;;;;5047461;28;20286;-74
2023/07/29 02:46:37;;;;;;;9.15;7.45;;;18.40;99.90;;;;;;5047187;28;20176;-74
2023/07/29 02:49:03;;;;;;;10.63;7.35;;;18.40;99.90;;;;;;5045607;28;20288;-74
2023/07/29 02:51:30;;;;;;;8.55;7.55;;;18.40;99.90;;;;;;5046743;28;20224;-74
2023/07/29 02:53:55;;;;;;;10.48;7.88;;;18.40;99.90;;;;;;5047381;28;20230;-74
2023/07/29 02:56:21;;;;;;;7.13;6.47;;;18.40;99.90;;;;;;5046902;28;20698;-74
2023/07/29 02:58:47;;;;;;;8.93;8.00;;;18.40;99.90;;;;;;5057952;28;20176;-74
2023/07/29 03:01:12;;;;;;;8.30;7.50;;;18.40;99.90;;;;;;5042543;28;20697;-74
2023/07/29 03:03:39;;;;;;;8.40;7.50;;;18.30;99.90;;;;;;5042941;28;20210;-74
2023/07/29 03:06:08;;;;;;;11.02;7.90;;;18.30;99.90;;;;;;5048108;28;20566;-75
2023/07/29 03:08:35;;;;;;;9.65;7.70;;;18.30;99.90;;;;;;5048178;28;20349;-74
2023/07/29 03:11:09;;;;;;;7.03;6.32;;;18.30;99.90;;;;;;5037590;28;20199;-74
2023/07/29 03:13:34;;;;;;;9.13;7.43;;;18.30;99.90;;;;;;5039672;28;20175;-74
2023/07/29 03:16:12;;;;;;;9.45;7.53;;;18.30;99.90;;;;;;5047894;28;20199;-74
2023/07/29 03:18:38;;;;;;;9.38;7.10;;;18.30;99.90;;;;;;5058763;28;20714;-74
2023/07/29 03:21:04;;;;;;;9.40;8.15;;;18.30;99.90;;;;;;5047669;28;20242;-73
2023/07/29 03:23:32;;;;;;;8.75;7.85;;;18.30;99.90;;;;;;5046814;28;20242;-75
2023/07/29 03:25:59;;;;;;;8.00;7.20;;;18.30;99.90;;;;;;5046949;28;20186;-75
2023/07/29 03:28:29;;;;;;;8.20;7.40;;;18.30;99.90;;;;;;5047335;28;20171;-73
2023/07/29 03:30:55;;;;;;;10.68;8.05;;;18.30;99.90;;;;;;5044118;28;20218;-74
2023/07/29 03:33:21;;;;;;;11.13;7.63;;;18.30;99.90;;;;;;5047956;28;20661;-74
2023/07/29 03:35:47;;;;;;;8.43;7.57;;;18.30;99.90;;;;;;5047137;28;20207;-74
2023/07/29 03:38:13;;;;;;;9.23;7.25;;;18.30;99.90;;;;;;5040899;28;20208;-74
2023/07/29 03:40:39;;;;;;;8.23;7.43;;;18.20;99.90;;;;;;5042432;28;20199;-73
2023/07/29 03:43:05;;;;;;;7.90;6.95;;;18.20;99.90;;;;;;5037183;28;20211;-72
2023/07/29 03:45:32;;;;;;;9.85;8.13;;;18.20;99.90;;;;;;5043547;28;20808;-74
2023/07/29 03:47:57;;;;;;;9.88;7.70;;;18.30;99.90;;;;;;5041462;28;20211;-76
2023/07/29 03:50:24;;;;;;;8.85;7.38;;;18.30;99.90;;;;;;5041826;28;20238;-75
2023/07/29 03:52:50;;;;;;;9.70;7.22;;;18.30;99.90;;;;;;5045077;28;20194;-74
2023/07/29 03:55:15;;;;;;;10.45;7.38;;;18.30;99.90;;;;;;5043766;28;20643;-73
2023/07/29 03:57:41;;;;;;;10.03;9.00;;;18.50;99.90;;;;;;5044849;28;20412;-76
2023/07/29 04:00:08;;;;;;;8.73;7.82;;;18.60;99.90;;;;;;5044967;28;20245;-75
2023/07/29 04:02:37;;;;;;;8.13;7.18;;;18.60;99.90;;;;;;5047583;28;20238;-74
2023/07/29 04:05:03;;;;;;;8.30;6.95;;;18.60;99.90;;;;;;5045093;28;20183;-74
2023/07/29 04:07:29;;;;;;;7.95;7.15;;;18.70;99.90;;;;;;5048940;28;20685;-74
2023/07/29 04:09:55;;;;;;;8.10;7.30;;;18.70;99.90;;;;;;5050564;28;20883;-74
2023/07/29 04:12:21;;;;;;;9.57;7.22;;;19.60;99.90;;;;;;5050955;28;20211;-74
2023/07/29 04:14:47;;;;;;;10.32;7.10;;;20.40;99.90;;;;;;5047815;28;20816;-77
2023/07/29 04:17:12;;;;;;;9.90;7.05;;;19.90;99.90;;;;;;5051210;28;20230;-76
2023/07/29 04:19:38;;;;;;;7.07;6.40;;;20.40;99.90;;;;;;5052225;28;20678;-76
2023/07/29 04:22:04;;;;;;;6.95;6.25;;;20.70;99.90;;;;;;5047522;28;20885;-74
2023/07/29 04:24:29;;;;;;;7.50;6.32;;;21.50;99.90;;;;;;5048097;28;20239;-75
2023/07/29 04:26:55;;;;;;;7.70;6.28;;;21.20;99.90;;;;;;5049674;28;20207;-76
2023/07/29 04:29:22;;;;;;;8.38;6.15;;;20.80;99.90;;;;;;5046423;28;20238;-75
2023/07/29 04:31:48;;;;;;;7.07;6.38;;;21.20;99.90;;;;;;5042640;28;20741;-75
2023/07/29 04:34:14;;;;;;;7.47;6.22;;;21.30;99.90;;;;;;5049343;28;20178;-75
2023/07/29 04:36:40;;;;;;;6.65;5.32;;;23.10;99.90;;;;;;5051058;28;20200;-74
2023/07/29 04:39:05;;;;;;;5.97;5.25;;;23.20;99.90;;;;;;5047043;28;20626;-73
2023/07/29 04:41:31;;;;;;;5.90;5.40;;;24.20;99.90;;;;;;5046035;28;20769;-74
2023/07/29 04:43:56;;;;;;;8.60;5.53;;;23.70;99.90;;;;;;5045841;28;20182;-74
2023/07/29 04:46:22;;;;;;;5.57;4.97;;;22.90;99.90;;;;;;5050011;28;20180;-74
2023/07/29 04:48:48;;;;;;;6.65;5.25;;;23.40;99.90;;;;;;5048596;28;20204;-76
2023/07/29 04:51:13;;;;;;;4.93;4.43;;;24.20;99.90;;;;;;5048582;28;20220;-75
2023/07/29 04:53:39;;;;;;;5.20;4.70;;;25.40;99.90;;;;;;5046783;28;20204;-75
2023/07/29 04:56:05;;;;;;;4.97;4.57;;;26.40;99.90;;;;;;5041383;28;20772;-75
2023/07/29 04:58:34;;;;;;;5.50;4.55;;;26.00;99.90;;;;;;5043744;28;20269;-75
2023/07/29 05:01:00;;;;;;;4.78;4.38;;;26.70;99.90;;;;;;5041687;28;20688;-75
2023/07/29 05:03:26;;;;;;;5.25;4.75;;;27.00;99.90;;;;;;5057943;28;20204;-75
2023/07/29 05:05:53;;;;;;;4.68;4.32;;;26.50;99.90;;;;;;5045254;28;20203;-75
2023/07/29 05:08:19;;;;;;;5.55;4.65;;;26.20;99.90;;;;;;5054852;28;20200;-75
2023/07/29 05:10:48;;;;;;;4.88;4.47;;;27.00;99.90;;;;;;5042772;28;20211;-75
2023/07/29 05:13:13;;;;;;;4.93;4.53;;;26.30;99.90;;;;;;5042688;28;20178;-74
2023/07/29 05:15:39;;;;;;;5.88;5.03;;;25.40;99.90;;;;;;5046238;28;20286;-75
2023/07/29 05:18:04;;;;;;;5.35;4.88;;;25.30;99.90;;;;;;5048972;28;20203;-74
2023/07/29 05:20:30;;;;;;;4.28;3.97;;;26.60;99.90;;;;;;5046510;28;20281;-75
2023/07/29 05:22:56;;;;;;;8.35;4.97;;;27.70;99.90;;;;;;5048737;28;20271;-75
2023/07/29 05:25:21;;;;;;;4.63;4.22;;;28.40;99.90;;;;;;5049244;28;20259;-75
2023/07/29 05:27:47;;;;;;;5.43;4.97;;;29.10;99.90;;;;;;5048534;28;20700;-75
2023/07/29 05:30:12;;;;;;;4.28;3.88;;;29.40;99.90;;;;;;5049557;28;20649;-76
2023/07/29 05:32:38;;;;;;;4.88;4.45;;;29.00;99.90;;;;;;5042443;28;20196;-75
2023/07/29 05:35:04;;;;;;;5.03;4.28;;;27.70;99.90;;;;;;5044565;28;20284;-75
2023/07/29 05:37:30;;;;;;;7.28;6.57;;;26.50;99.90;;;;;;5049098;28;20206;-75
2023/07/29 05:39:55;;;;;;;6.43;5.50;;;25.50;99.90;;;;;;5041610;28;20228;-75
2023/07/29 05:42:21;;;;;;;7.93;6.80;;;25.00;99.90;;;;;;5046573;28;20724;-75
2023/07/29 05:44:46;;;;;;;8.55;7.75;;;24.80;99.90;;;;;;5045116;28;20196;-76
2023/07/29 05:47:12;;;;;;;6.40;5.90;;;25.00;99.90;;;;;;5045690;28;20203;-75
2023/07/29 05:49:38;;;;;;;6.32;4.90;;;25.80;99.90;;;;;;5048230;28;20246;-75
2023/07/29 05:52:04;;;;;;;6.70;6.07;;;27.30;99.90;;;;;;5041859;28;20215;-75
2023/07/29 05:54:29;;;;;;;4.47;4.13;;;28.10;99.90;;;;;;5048279;28;20204;-76
2023/07/29 05:56:55;;;;;;;7.50;4.63;;;29.40;99.90;;;;;;5047495;28;20726;-76
2023/07/29 05:59:20;;;;;;;6.65;4.18;;;30.20;99.90;;;;;;5043906;28;20200;-77
2023/07/29 06:01:46;;;;;;;5.55;5.05;;;30.90;99.90;;;;;;5047356;28;20187;-75
2023/07/29 06:04:12;;;;;;;6.22;5.63;;;30.70;99.90;;;;;;5049379;28;20176;-76
2023/07/29 06:06:37;;;;;;;5.30;4.80;;;30.90;99.90;;;;;;5043903;28;20204;-73
2023/07/29 06:09:03;;;;;;;4.32;4.03;;;30.10;99.90;;;;;;5044930;28;20207;-76
2023/07/29 06:11:28;;;;;;;4.60;4.20;;;30.40;99.90;;;;;;5037590;28;20243;-76
2023/07/29 06:13:54;;;;;;;4.88;4.13;;;30.00;99.90;;;;;;5043068;28;20183;-76
2023/07/29 06:16:19;;;;;;;4.43;4.03;;;29.40;99.90;;;;;;5044021;28;20187;-75
2023/07/29 06:18:45;;;;;;;4.65;4.25;;;29.20;99.90;;;;;;5046375;28;20206;-75
2023/07/29 06:21:16;;;;;;;4.72;4.32;;;28.60;99.90;;;;;;5048437;28;20252;-76
2023/07/29 06:23:45;;;;;;;6.32;3.85;;;29.30;99.90;;;;;;5047678;28;20661;-75
2023/07/29 06:26:10;;;;;;;4.00;3.70;;;29.80;99.90;;;;;;5045413;28;20206;-75
2023/07/29 06:28:36;;;;;;;9.82;8.98;;;30.60;99.90;;;;;;5048248;28;20171;-75
2023/07/29 06:31:02;;;;;;;7.22;4.57;;;31.40;99.90;;;;;;5046997;28;20234;-76
2023/07/29 06:33:27;;;;;;;4.00;3.60;;;31.70;99.90;;;;;;5054069;28;20294;-73
2023/07/29 06:35:53;;;;;;;3.33;3.13;;;32.20;99.90;;;;;;5048054;28;20241;-74
2023/07/29 06:38:21;;;;;;;3.78;3.47;;;32.40;99.90;;;;;;5047813;28;20226;-74
2023/07/29 06:40:50;;;;;;;3.70;3.30;;;33.60;99.90;;;;;;5044163;28;20206;-73
2023/07/29 06:43:16;;;;;;;3.85;3.55;;;34.20;99.90;;;;;;5047239;28;20285;-74
2023/07/29 06:45:42;;;;;;;3.58;3.22;;;34.20;99.90;;;;;;5044874;28;20199;-73
2023/07/29 06:48:08;;;;;;;3.78;3.47;;;34.60;99.90;;;;;;5040474;28;20201;-73
2023/07/29 06:50:34;;;;;;;3.40;3.10;;;34.70;99.90;;;;;;5038644;28;20211;-73
2023/07/29 06:52:59;;;;;;;4.07;3.78;;;34.50;99.90;;;;;;5042722;28;20179;-74
2023/07/29 06:55:25;;;;;;;3.70;3.38;;;34.50;99.90;;;;;;5044698;28;20193;-74
2023/07/29 06:57:50;;;;;;;4.07;3.60;;;34.90;99.90;;;;;;5042203;28;20230;-74
2023/07/29 07:00:16;;;;;;;3.35;3.08;;;34.40;99.90;;;;;;5043680;28;20205;-72
2023/07/29 07:02:42;;;;;;;3.70;3.40;;;33.90;99.90;;;;;;5045737;28;20203;-73
2023/07/29 07:05:07;;;;;;;3.45;3.20;;;33.10;99.90;;;;;;5044788;28;20207;-75
2023/07/29 07:07:33;;;;;;;3.75;3.40;;;32.80;99.90;;;;;;5044727;28;20561;-73
2023/07/29 07:09:59;;;;;;;6.82;5.97;;;32.30;99.90;;;;;;5045665;28;20252;-74
2023/07/29 07:12:25;;;;;;;6.35;5.75;;;32.00;99.90;;;;;;5044382;28;20211;-73
2023/07/29 07:14:50;;;;;;;4.72;4.25;;;31.40;99.90;;;;;;5048055;28;20225;-73
2023/07/29 07:17:16;;;;;;;4.70;3.53;;;30.90;99.90;;;;;;5047053;28;20207;-73
2023/07/29 07:19:41;;;;;;;4.47;3.47;;;29.70;99.90;;;;;;5043251;28;20533;-76
2023/07/29 07:22:07;;;;;;;9.27;8.30;;;28.80;99.90;;;;;;5040247;28;20586;-75
2023/07/29 07:24:33;;;;;;;8.68;7.15;;;28.50;99.90;;;;;;5044649;28;20227;-75
2023/07/29 07:26:58;;;;;;;4.85;4.30;;;28.30;99.90;;;;;;5041013;28;20316;-75
2023/07/29 07:29:24;;;;;;;6.13;4.47;;;28.10;99.90;;;;;;5041361;28;20214;-75
2023/07/29 07:31:53;;;;;;;4.35;3.92;;;28.00;99.90;;;;;;5041563;28;20234;-75
2023/07/29 07:34:20;;;;;;;3.80;3.50;;;27.60;99.90;;;;;;5042115;28;20172;-76
2023/07/29 07:36:46;;;;;;;4.18;3.65;;;27.40;99.90;;;;;;5060796;28;20617;-75
2023/07/29 07:39:12;;;;;;;4.57;4.18;;;27.70;99.90;;;;;;5043450;28;20200;-75
2023/07/29 07:41:38;;;;;;;5.63;4.22;;;28.20;99.90;;;;;;5061965;28;20207;-75
2023/07/29 07:44:04;;;;;;;3.63;3.33;;;28.90;99.90;;;;;;5050368;28;20222;-75
2023/07/29 07:46:30;;;;;;;3.78;3.30;;;30.10;99.90;;;;;;5050054;28;21503;-75
2023/07/29 07:48:55;;;;;;;4.20;3.90;;;31.00;99.90;;;;;;5050258;28;20232;-75
2023/07/29 07:51:21;;;;;;;2.90;2.70;;;32.50;99.90;;;;;;5050350;28;20219;-75
2023/07/29 07:53:46;;;;;;;3.28;2.92;;;33.00;99.90;;;;;;5051747;28;20202;-75
2023/07/29 07:56:12;;;;;;;3.63;2.80;;;33.00;99.90;;;;;;5051697;28;20547;-72
2023/07/29 07:58:38;;;;;;;2.70;2.50;;;34.00;99.90;;;;;;5048478;28;20167;-75
2023/07/29 08:01:06;;;;;;;2.90;2.65;;;33.70;99.90;;;;;;5040435;28;20235;-74
2023/07/29 08:03:32;;;;;;;3.50;3.20;;;32.70;99.90;;;;;;5047082;28;20211;-74
2023/07/29 08:05:57;;;;;;;3.17;2.88;;;32.50;99.90;;;;;;5051708;28;20280;-75
2023/07/29 08:08:23;;;;;;;2.90;2.53;;;33.20;99.90;;;;;;5041053;28;20306;-75
2023/07/29 08:10:48;;;;;;;3.40;3.00;;;32.30;99.90;;;;;;5046361;28;20608;-75
2023/07/29 08:13:14;;;;;;;3.58;3.28;;;31.70;99.90;;;;;;5046089;28;20576;-75
2023/07/29 08:15:41;;;;;;;3.40;3.10;;;31.30;99.90;;;;;;5046191;28;20199;-74
2023/07/29 08:18:06;;;;;;;3.00;2.80;;;31.20;99.90;;;;;;5050022;28;20211;-74
2023/07/29 08:20:32;;;;;;;3.22;3.03;;;30.20;99.90;;;;;;5047715;28;20212;-74
2023/07/29 08:22:58;;;;;;;3.22;3.03;;;29.90;99.90;;;;;;5049432;28;20267;-74
2023/07/29 08:25:24;;;;;;;4.45;3.15;;;29.50;99.90;;;;;;5049355;28;20630;-75
2023/07/29 08:27:49;;;;;;;2.65;2.45;;;29.00;99.90;;;;;;5050590;28;20274;-74
2023/07/29 08:30:16;;;;;;;3.47;3.17;;;29.00;99.90;;;;;;5050086;28;20208;-72
2023/07/29 08:32:41;;;;;;;4.47;3.08;;;28.30;99.90;;;;;;5051313;28;20199;-74
2023/07/29 08:35:07;;;;;;;2.72;2.53;;;28.20;99.90;;;;;;5043601;28;20204;-74
2023/07/29 08:37:33;;;;;;;3.33;2.88;;;28.00;99.90;;;;;;5040497;28;20217;-75
2023/07/29 08:39:59;;;;;;;2.78;2.55;;;27.90;99.90;;;;;;5049620;28;20196;-75
2023/07/29 08:42:30;;;;;;;4.70;3.03;;;28.00;99.90;;;;;;5044433;28;20241;-73
2023/07/29 08:44:58;;;;;;;3.15;2.85;;;27.70;99.90;;;;;;5053566;28;20618;-74
2023/07/29 08:47:24;;;;;;;4.78;3.35;;;28.10;99.90;;;;;;5047937;28;20207;-75
2023/07/29 08:49:51;;;;;;;3.72;2.75;;;27.80;99.90;;;;;;5051184;28;20179;-73
2023/07/29 08:52:18;;;;;;;3.80;3.20;;;27.40;99.90;;;;;;5048353;28;20196;-70
2023/07/29 08:54:44;;;;;;;3.35;3.05;;;27.00;99.90;;;;;;5063515;28;20232;-73
2023/07/29 08:57:10;;;;;;;4.05;2.95;;;26.80;99.90;;;;;;5051284;28;20230;-74
2023/07/29 08:59:37;;;;;;;2.80;2.60;;;26.60;99.90;;;;;;5053341;28;20246;-73
2023/07/29 09:02:03;;;;;;;4.00;3.00;;;26.20;99.90;;;;;;5054336;28;20923;-74
2023/07/29 09:04:28;;;;;;;3.08;2.78;;;26.40;99.90;;;;;;5053523;28;20221;-74
2023/07/29 09:06:56;;;;;;;4.55;3.22;;;26.60;99.90;;;;;;5050813;28;20668;-74
2023/07/29 09:09:22;;;;;;;3.75;2.85;;;26.80;99.90;;;;;;5049193;28;20235;-74
2023/07/29 09:11:48;;;;;;;3.10;2.90;;;27.20;99.90;;;;;;5058301;28;20236;-74
2023/07/29 09:14:14;;;;;;;3.10;2.90;;;27.50;99.90;;;;;;5043894;28;20218;-73
2023/07/29 09:16:40;;;;;;;3.78;2.60;;;27.20;99.90;;;;;;5040949;28;20661;-74
2023/07/29 09:19:06;;;;;;;3.53;3.22;;;27.30;99.90;;;;;;5048608;28;20207;-73
2023/07/29 09:21:32;;;;;;;2.85;2.65;;;27.30;99.90;;;;;;5046253;28;20208;-74
2023/07/29 09:24:03;;;;;;;2.72;2.53;;;27.30;99.90;;;;;;5046354;28;20244;-74
2023/07/29 09:26:29;;;;;;;3.67;2.47;;;27.30;99.90;;;;;;5048950;28;20199;-74
2023/07/29 09:28:56;;;;;;;4.78;2.80;;;26.90;99.90;;;;;;5048601;28;20638;-74
2023/07/29 09:31:23;;;;;;;2.65;2.45;;;26.90;99.90;;;;;;5046848;28;20215;-73
2023/07/29 09:33:50;;;;;;;2.88;2.67;;;27.30;99.90;;;;;;5046686;28;20215;-75
2023/07/29 09:36:16;;;;;;;4.43;2.60;;;27.70;99.90;;;;;;5048164;28;20203;-73
2023/07/29 09:38:42;;;;;;;2.80;2.60;;;28.10;99.90;;;;;;5050293;28;20209;-74
2023/07/29 09:41:11;;;;;;;5.18;4.65;;;28.30;99.90;;;;;;5049131;28;20213;-74
2023/07/29 09:43:37;;;;;;;9.55;7.72;;;28.40;99.90;;;;;;5050642;28;20243;-75
2023/07/29 09:46:04;;;;;;;6.53;5.05;;;28.40;99.90;;;;;;5050256;28;20200;-74
2023/07/29 09:48:34;;;;;;;5.28;4.47;;;28.00;99.90;;;;;;5044551;28;20232;-74
2023/07/29 09:51:08;;;;;;;6.72;4.25;;;27.70;99.90;;;;;;5046158;28;20209;-74
2023/07/29 09:53:49;;;;;;;5.25;3.60;;;27.50;99.90;;;;;;5045008;28;20248;-74
2023/07/29 09:56:16;;;;;;;6.13;4.88;;;27.70;99.90;;;;;;5044054;28;21009;-75
2023/07/29 09:58:47;;;;;;;4.05;3.03;;;27.90;99.90;;;;;;5044083;28;20237;-74
2023/07/29 10:01:14;;;;;;;3.28;2.97;;;28.10;99.90;;;;;;5044134;28;20825;-74
2023/07/29 10:03:40;;;;;;;2.50;2.30;;;28.30;99.90;;;;;;5047002;28;20573;-74
2023/07/29 10:06:07;;;;;;;3.25;2.58;;;27.70;99.90;;;;;;5047477;28;20231;-74
2023/07/29 10:08:37;;;;;;;2.20;2.10;;;27.80;99.90;;;;;;5058179;28;20211;-76
2023/07/29 10:11:08;;;;;;;4.82;2.45;;;27.10;99.90;;;;;;5040417;28;20261;-74
2023/07/29 10:13:35;;;;;;;2.53;2.33;;;26.80;99.90;;;;;;5046855;28;20178;-74
2023/07/29 10:16:05;;;;;;;2.58;2.33;;;27.00;99.90;;;;;;5048016;28;20196;-74
2023/07/29 10:18:32;;;;;;;3.03;2.83;;;27.00;99.90;;;;;;5058096;28;20212;-74
2023/07/29 10:20:59;;;;;;;2.65;2.35;;;27.20;99.90;;;;;;5048833;28;20203;-74
2023/07/29 10:23:31;;;;;;;2.15;1.95;;;27.20;99.90;;;;;;5049461;28;20293;-74
2023/07/29 10:26:04;;;;;;;2.05;1.95;;;26.80;99.90;;;;;;5038386;28;20712;-74
2023/07/29 10:28:31;;;;;;;7.38;4.85;;;26.50;99.90;;;;;;5058616;28;20305;-74
2023/07/29 10:30:58;;;;;;;4.80;3.78;;;26.20;99.90;;;;;;5058827;28;20355;-74
2023/07/29 10:33:23;;;;;;;4.03;3.28;;;26.30;99.90;;;;;;5043474;28;20234;-74
2023/07/29 10:35:50;;;;;;;2.97;2.70;;;26.60;99.90;;;;;;5045205;28;20204;-73
2023/07/29 10:38:16;;;;;;;2.28;2.08;;;26.50;99.90;;;;;;5044617;28;20257;-73
2023/07/29 10:40:50;;;;;;;2.95;2.65;;;26.50;99.90;;;;;;5045939;28;20231;-74
2023/07/29 10:43:25;;;;;;;5.05;2.25;;;26.70;99.90;;;;;;5040317;28;20258;-74
2023/07/29 10:45:51;;;;;;;3.33;2.03;;;26.70;99.90;;;;;;5045586;28;20256;-74
2023/07/29 10:48:37;;;;;;;2.17;2.03;;;26.40;99.90;;;;;;5044923;28;20701;-74
2023/07/29 10:51:35;;;;;;;3.53;2.58;;;26.10;99.90;;;;;;5046824;28;20231;-74
2023/07/29 10:54:03;;;;;;;2.50;2.30;;;26.40;99.90;;;;;;5044333;28;20281;-75
2023/07/29 10:56:33;;;;;;;2.00;1.90;;;26.20;99.90;;;;;;5044845;28;20206;-74
2023/07/29 10:59:22;;;;;;;2.50;1.90;;;26.10;99.90;;;;;;5044891;28;20273;-73
2023/07/29 11:01:58;;;;;;;3.50;2.38;;;25.60;99.90;;;;;;5042617;28;20202;-74
2023/07/29 11:04:29;;;;;;;2.90;2.00;;;25.50;99.90;;;;;;5053344;28;20183;-75
2023/07/29 11:07:04;;;;;;;3.28;2.53;;;25.40;99.90;;;;;;5056994;28;20203;-74
2023/07/29 11:09:42;;;;;;;4.07;3.10;;;25.40;99.90;;;;;;5041563;28;20211;-75
2023/07/29 11:12:36;;;;;;;4.20;2.20;;;25.30;99.90;;;;;;5046957;28;20291;-73
2023/07/29 11:15:05;;;;;;;4.75;2.00;;;23.70;99.90;;;;;;5044565;28;20310;-74
2023/07/29 11:17:36;;;;;;;8.57;2.92;;;22.80;99.90;;;;;;5042489;28;20223;-73
2023/07/29 11:20:03;;;;;;;8.75;5.10;;;22.20;99.90;;;;;;5045581;28;20165;-73
2023/07/29 11:22:30;;;;;;;2.70;1.40;;;21.80;99.90;;;;;;5047000;28;20203;-73
2023/07/29 11:24:56;;;;;;;2.08;1.50;;;21.60;99.90;;;;;;5046159;28;20890;-75
2023/07/29 11:27:22;;;;;;;5.28;2.63;;;21.60;99.90;;;;;;5045753;28;20350;-73
2023/07/29 11:29:48;;;;;;;4.38;2.33;;;21.60;99.90;;;;;;5044474;28;20264;-73
2023/07/29 11:32:14;;;;;;;2.63;1.67;;;21.50;99.90;;;;;;5047101;28;20226;-73
2023/07/29 11:34:41;;;;;;;2.75;1.75;;;21.70;99.90;;;;;;5047678;28;20180;-73
2023/07/29 11:37:09;;;;;;;1.58;1.20;;;21.80;99.90;;;;;;5046241;28;20715;-73
2023/07/29 11:39:40;;;;;;;2.92;1.30;;;21.90;99.90;;;;;;5044511;28;20226;-74
2023/07/29 11:42:06;;;;;;;2.75;1.55;;;22.00;99.90;;;;;;5044979;28;20698;-74
2023/07/29 11:44:32;;;;;;;4.75;2.38;;;22.10;99.90;;;;;;5044987;28;20219;-74
2023/07/29 11:46:58;;;;;;;2.72;1.17;;;22.10;99.90;;;;;;5045020;28;20180;-74
2023/07/29 11:49:23;;;;;;;3.95;2.03;;;22.20;99.90;;;;;;5045661;28;20262;-74
2023/07/29 11:51:49;;;;;;;7.57;3.38;;;22.30;99.90;;;;;;5043847;28;20207;-75
2023/07/29 11:54:15;;;;;;;5.63;1.80;;;22.30;99.90;;;;;;5046479;28;20207;-75
2023/07/29 11:56:41;;;;;;;2.17;1.40;;;22.40;99.90;;;;;;5045140;28;20204;-74
2023/07/29 11:59:07;;;;;;;6.00;2.17;;;22.30;99.90;;;;;;5044833;28;20211;-74
2023/07/29 12:01:33;;;;;;;4.53;2.28;;;22.50;99.90;;;;;;5047871;28;20682;-74
2023/07/29 12:03:59;;;;;;;5.22;2.45;;;22.40;99.90;;;;;;5047608;28;20239;-74
2023/07/29 12:06:25;;;;;;;2.03;1.42;;;22.40;99.90;;;;;;5046730;28;20212;-74
2023/07/29 12:08:51;;;;;;;3.65;2.47;;;22.60;99.90;;;;;;5046708;28;20281;-74
2023/07/29 12:11:17;;;;;;;3.05;2.38;;;22.60;99.90;;;;;;5046721;28;20251;-74
2023/07/29 12:13:43;;;;;;;2.40;1.95;;;22.60;99.90;;;;;;5047286;28;20179;-74
2023/07/29 12:16:09;;;;;;;4.38;2.03;;;22.60;99.90;;;;;;5037730;28;20208;-74
2023/07/29 12:18:36;;;;;;;3.35;2.20;;;22.70;99.90;;;;;;5043957;28;20214;-74
2023/07/29 12:21:03;;;;;;;2.42;1.63;;;22.80;99.90;;;;;;5042755;28;20203;-74
2023/07/29 12:23:29;;;;;;;3.30;1.92;;;22.90;99.90;;;;;;5041919;28;20203;-74
2023/07/29 12:25:59;;;;;;;2.00;1.80;;;22.90;99.90;;;;;;5042420;28;20301;-74
2023/07/29 12:28:25;;;;;;;3.22;1.67;;;22.90;99.90;;;;;;5043265;28;20689;-72
2023/07/29 12:30:55;;;;;;;4.47;1.90;;;22.90;99.90;;;;;;5047314;28;20215;-74
2023/07/29 12:33:30;;;;;;;4.13;2.22;;;23.10;99.90;;;;;;5042736;28;20761;-73
2023/07/29 12:35:56;;;;;;;3.78;1.80;;;23.30;99.90;;;;;;5047976;28;20218;-73
2023/07/29 12:38:22;;;;;;;4.15;2.63;;;23.50;99.90;;;;;;5048594;28;20211;-73
2023/07/29 12:40:48;;;;;;;2.88;2.40;;;23.70;99.90;;;;;;5049036;28;20198;-74
2023/07/29 12:43:13;;;;;;;3.97;2.53;;;23.90;99.90;;;;;;5051281;28;20262;-73
2023/07/29 12:45:41;;;;;;;3.08;2.80;;;24.10;99.90;;;;;;5048201;28;20215;-73